This is the latest recevied packets stored in our database for station/object DB0LER. If no packets are shown the sender has not sent any packets the latest 24 hours.

If you compare the raw packets with similar data from other websites it may differ (especially the path), the reason is that we are not collecting packets from the same APRS-IS servers. Each APRS-IS server performes duplicate filtering, and which packet that is considered to be a duplicate may differ depending on which APRS-IS server you receive your data from.

1619032401: DB0LER>APRX29,TCPIP*,qAC,DB0GW:T#058,118.999996185,118,384,,, Testing

1619032762: DB0LER>APRX29,TCPIP*,qAC,DB0GW:T#098,113.999996185,113,380,,, Testing

1619033068: DB0LER>APRX29,TCPIP*,qAC,DB0GW:T#078,116.000003815,116,384,,, Testing

1619033099: DB0LER>APRX29,DB0PDF-10,DB0OL-10*,qAR,DL5XL-10:T#078,116.000003815,116,384,,, Testing

1619033393: DB0LER>APRX29,TCPIP*,qAC,DB0GW:T#033,113.999996185,113,382,,, Testing

1619033793: DB0LER>APRX29,TCPIP*,qAC,DB0GW:!5313.29N/00726.95E#APRS-Digi Leer

1619034675: DB0LER>APRX29,TCPIP*,qAC,DB0GW:T#088,111.999998093,111,385,,, Testing

1619034997: DB0LER>APRX29,TCPIP*,qAC,DB0GW:T#085,111.999998093,111,387,,, Testing

1619035347: DB0LER>APRX29,TCPIP*,qAC,DB0GW:T#088,108.999996185,108,385,,, Testing

1619035368: DB0LER>APRX29,TCPIP*,qAC,DB0GW:!5313.29N/00726.95E#APRS-Digi Leer

1619035690: DB0LER>APRX29,WIDE2-2,qAR,DB0OX-10:T#012,108.000001907,108,387,,, Testing

1619035790: DB0LER>APRX29,TCPIP*,qAC,DB0GW:T#012,108.000001907,108,387,,, Testing

1619036023: DB0LER>APRX29,TCPIP*,qAC,DB0GW:T#081,105.0,105,385,,, Testing

1619036323: DB0LER>APRX29,TCPIP*,qAC,DB0GW:T#032,108.000001907,108,390,,, Testing

1619036657: DB0LER>APRX29,TCPIP*,qAC,DB0GW:T#047,106.999998093,106,390,,, Testing

1619036953: DB0LER>APRX29,TCPIP*,qAC,DB0GW:T#022,105.0,105,390,,, Testing

1619037158: DB0LER>APRX29,TCPIP*,qAC,DB0GW:!5313.29N/00726.95E#APRS-Digi Leer

1619037525: DB0LER>APRX29,TCPIP*,qAC,DB0GW::DB0LER :UNIT.C,C,%

1619037525: DB0LER>APRX29,TCPIP*,qAC,DB0GW::DB0LER :EQNS.0,0.1,0,0,0.1,0,0,0.1,0

1619037525: DB0LER>APRX29,TCPIP*,qAC,DB0GW::DB0LER :PARM.Temp1,Temp2,Feuchte

1619037550: DB0LER>APRX29,TCPIP*,qAC,DB0GW:T#075,101.999998093,101,387,,, Testing

1619038513: DB0LER>APRX29,TCPIP*,qAC,DB0GW:T#023,101.999998093,101,390,,, Testing

1619038948: DB0LER>APRX29,TCPIP*,qAC,DB0GW:!5313.29N/00726.95E#APRS-Digi Leer

1619039158: DB0LER>APRX29,TCPIP*,qAC,DB0GW:T#049,101.000003815,101,392,,, Testing

1619039793: DB0LER>APRX29,TCPIP*,qAC,DB0GW:T#008,98.0000019073,98,402,,, Testing

Initial position
Current position
Ruler